Time;durP1;ratioP1;P1;durP2;ratioP2;P2;SDS_P1;SDS_P2;PMS_P1;PMS_P2;Temp;Humidity;BMP_temperature;BMP_pressure;BME280_temperature;BME280_humidity;BME280_pressure;Samples;Min_cycle;Max_cycle;Signal;HPM_P1;HPM_P2
2022/01/25 00:08:18;;;;;;;43.00;18.77;;;;;;;-8.38;74.26;98151.63;5115458;28;20453;-35
2022/01/25 00:15:44;;;;;;;39.90;17.60;;;;;;;-8.37;76.91;98141.22;5052571;28;20504;-36
2022/01/25 00:26:25;;;;;;;42.87;17.93;;;;;;;-8.19;77.76;98153.97;5115116;28;20463;-35
2022/01/25 00:29:05;;;;;;;27.63;14.30;;;;;;;-8.30;77.30;98126.25;5114358;28;20839;-37
2022/01/25 00:31:33;;;;;;;70.27;21.27;;;;;;;-8.11;78.00;98144.09;5114299;28;20788;-37
2022/01/25 00:34:00;;;;;;;53.17;17.50;;;;;;;-8.10;77.45;98148.34;5114837;28;20821;-37
2022/01/25 00:36:29;;;;;;;47.27;17.13;;;;;;;-8.08;77.23;98151.66;5114678;28;20438;-37
2022/01/25 00:38:57;;;;;;;59.03;20.23;;;;;;;-8.10;76.73;98144.00;5114703;28;20442;-37
2022/01/25 00:41:26;;;;;;;54.07;21.33;;;;;;;-8.11;76.43;98151.81;5114593;28;20468;-37
2022/01/25 00:43:57;;;;;;;44.90;14.03;;;;;;;-8.15;77.01;98150.31;5114443;28;20442;-38
2022/01/25 00:46:25;;;;;;;52.80;18.47;;;;;;;-8.17;76.20;98157.31;5114303;28;20423;-37
2022/01/25 00:48:55;;;;;;;41.43;18.73;;;;;;;-8.21;76.05;98169.56;5114136;28;20513;-37
2022/01/25 00:51:57;;;;;;;39.73;21.30;;;;;;;-8.25;76.19;98176.63;5114609;28;20487;-38
2022/01/25 00:54:31;;;;;;;51.90;22.80;;;;;;;-8.25;76.16;98166.31;5113955;28;20442;-37
2022/01/25 00:56:59;;;;;;;49.00;17.53;;;;;;;-8.28;75.95;98166.50;5114150;28;20912;-38
2022/01/25 00:59:30;;;;;;;52.93;18.97;;;;;;;-8.29;75.24;98159.66;5114323;28;20438;-37
2022/01/25 01:01:59;;;;;;;61.83;22.53;;;;;;;-8.33;75.46;98147.84;5114068;28;20428;-38
2022/01/25 01:04:27;;;;;;;74.40;26.00;;;;;;;-8.34;75.41;98150.53;5113964;28;20434;-37
2022/01/25 01:06:56;;;;;;;47.13;20.37;;;;;;;-8.35;75.33;98154.84;5113940;28;20449;-38
2022/01/25 01:09:24;;;;;;;60.13;24.23;;;;;;;-8.37;76.02;98151.53;5113897;28;20490;-37
2022/01/25 01:11:57;;;;;;;50.57;20.63;;;;;;;-8.34;76.33;98151.38;5114136;28;20933;-37
2022/01/25 01:14:39;;;;;;;58.90;21.27;;;;;;;-8.33;76.61;98153.00;5113979;28;20902;-38
2022/01/25 01:17:32;;;;;;;43.37;20.77;;;;;;;-8.33;77.40;98136.72;5114191;28;20429;-37
2022/01/25 01:31:09;;;;;;;29.00;11.43;;;;;;;-8.04;79.08;98142.84;5087510;28;20426;-38
2022/01/25 01:39:25;;;;;;;45.47;16.97;;;;;;;-8.02;78.69;98130.69;5110332;28;20952;-37
2022/01/25 01:44:51;;;;;;;34.37;13.07;;;;;;;-8.09;76.90;98129.34;5086217;28;20470;-35
2022/01/25 01:47:24;;;;;;;28.10;14.20;;;;;;;-8.13;76.69;98125.28;5117702;28;20894;-37
2022/01/25 01:49:53;;;;;;;38.13;13.97;;;;;;;-8.15;76.98;98112.50;5117474;28;20515;-34
2022/01/25 01:52:20;;;;;;;28.97;13.77;;;;;;;-8.14;76.91;98113.34;5117561;28;20449;-35
2022/01/25 01:54:48;;;;;;;24.70;11.13;;;;;;;-8.13;76.63;98107.25;5117567;28;20457;-35
2022/01/25 01:57:15;;;;;;;41.63;13.33;;;;;;;-8.17;76.05;98110.91;5117534;28;20452;-35
2022/01/25 01:59:42;;;;;;;29.90;12.80;;;;;;;-8.21;76.23;98106.88;5117714;28;20441;-35
2022/01/25 02:02:10;;;;;;;31.50;11.07;;;;;;;-8.26;75.44;98095.09;5117768;28;20450;-37
2022/01/25 02:04:37;;;;;;;31.57;12.50;;;;;;;-8.30;75.52;98095.31;5117659;28;20434;-35
2022/01/25 02:07:06;;;;;;;43.67;13.93;;;;;;;-8.31;76.34;98089.34;5117308;28;20438;-35
2022/01/25 02:09:33;;;;;;;26.87;12.93;;;;;;;-8.30;76.31;98085.88;5117246;28;20489;-37
2022/01/25 02:12:00;;;;;;;17.23;10.13;;;;;;;-8.24;77.50;98079.50;5117289;28;20441;-35
2022/01/25 02:14:28;;;;;;;34.20;14.80;;;;;;;-8.18;77.73;98075.78;5117497;28;20503;-35
2022/01/25 02:17:07;;;;;;;15.97;10.83;;;;;;;-8.14;78.59;98065.19;5117612;28;20442;-35
2022/01/25 02:22:26;;;;;;;20.90;9.70;;;;;;;-8.11;78.32;98051.28;5117658;28;20480;-35
2022/01/25 02:24:53;;;;;;;15.67;9.93;;;;;;;-8.07;78.16;98061.34;5117395;28;20793;-35
2022/01/25 02:27:21;;;;;;;21.20;11.20;;;;;;;-8.06;78.29;98057.03;5116877;28;20444;-34
2022/01/25 02:29:48;;;;;;;18.77;8.40;;;;;;;-8.09;77.88;98058.00;5116816;28;21017;-37
2022/01/25 02:32:15;;;;;;;41.43;17.20;;;;;;;-8.18;76.26;98062.88;5116858;28;20525;-35
2022/01/25 02:34:43;;;;;;;29.77;15.40;;;;;;;-8.28;75.58;98050.53;5116819;28;20532;-36
2022/01/25 02:37:14;;;;;;;34.37;14.80;;;;;;;-8.34;76.44;98044.91;5117097;28;20453;-36
2022/01/25 02:39:44;;;;;;;43.33;16.47;;;;;;;-8.36;76.69;98039.00;5116699;28;20438;-36
2022/01/25 02:42:12;;;;;;;34.53;16.10;;;;;;;-8.37;77.44;98038.16;5116716;28;20925;-35
2022/01/25 02:44:41;;;;;;;21.27;12.23;;;;;;;-8.34;77.51;98032.03;5116971;28;20858;-37
2022/01/25 02:49:54;;;;;;;25.17;14.13;;;;;;;-8.30;77.14;98020.59;5116499;28;20534;-34
2022/01/25 02:52:22;;;;;;;45.77;14.87;;;;;;;-8.34;76.64;98030.28;5115859;28;20438;-37
2022/01/25 02:54:51;;;;;;;24.73;13.87;;;;;;;-8.39;76.81;98027.09;5116391;28;20445;-35
2022/01/25 02:57:19;;;;;;;29.23;13.87;;;;;;;-8.35;77.77;98009.72;5116394;28;20444;-35
2022/01/25 02:59:46;;;;;;;38.57;13.50;;;;;;;-8.32;78.28;98009.56;5116300;28;20449;-35
2022/01/25 03:02:14;;;;;;;20.13;11.17;;;;;;;-8.27;79.06;98013.53;5116601;28;20921;-35
2022/01/25 03:04:41;;;;;;;18.70;11.60;;;;;;;-8.27;78.45;98018.69;5116489;28;20438;-36
2022/01/25 03:07:09;;;;;;;48.10;21.23;;;;;;;-8.32;77.05;98012.97;5116190;28;20442;-35
2022/01/25 03:09:37;;;;;;;37.73;18.13;;;;;;;-8.33;77.15;97997.59;5116296;28;20534;-35
2022/01/25 03:12:09;;;;;;;34.43;16.97;;;;;;;-8.32;77.61;98000.09;5116123;28;20880;-37
2022/01/25 03:14:47;;;;;;;37.20;15.53;;;;;;;-8.28;77.99;97991.28;5116036;28;20488;-39
2022/01/25 03:17:24;;;;;;;30.47;10.50;;;;;;;-8.20;78.62;98000.28;5116340;28;20819;-37
2022/01/25 03:20:03;;;;;;;28.37;14.87;;;;;;;-8.20;78.05;97987.41;5116337;28;20491;-37
2022/01/25 03:22:56;;;;;;;28.17;13.57;;;;;;;-8.19;78.54;97983.88;5116510;28;20480;-37
2022/01/25 03:25:20;;;;;;;25.77;12.93;;;;;;;-8.18;78.28;97981.22;5115771;28;20434;-37
2022/01/25 03:27:49;;;;;;;30.00;13.00;;;;;;;-8.21;78.72;97983.19;5116110;28;20442;-37
2022/01/25 03:30:16;;;;;;;18.47;12.43;;;;;;;-8.18;78.24;97985.56;5115616;28;21043;-37
2022/01/25 03:32:43;;;;;;;44.97;19.40;;;;;;;-8.23;77.17;97973.78;5116013;28;20446;-37
2022/01/25 03:35:11;;;;;;;41.37;21.77;;;;;;;-8.30;76.62;97967.34;5115882;28;20442;-36
2022/01/25 03:37:38;;;;;;;34.37;19.27;;;;;;;-8.32;77.13;97974.31;5115626;28;20463;-37
2022/01/25 03:40:07;;;;;;;54.47;22.30;;;;;;;-8.34;77.30;97978.75;5116245;28;20937;-37
2022/01/25 03:42:37;;;;;;;48.80;19.10;;;;;;;-8.31;77.21;97965.66;5116237;28;20446;-35
2022/01/25 03:45:09;;;;;;;44.70;18.80;;;;;;;-8.29;77.44;97968.97;5115516;28;20997;-36
2022/01/25 03:47:46;;;;;;;42.10;20.67;;;;;;;-8.24;78.17;97966.97;5115365;28;20509;-36
2022/01/25 03:50:12;;;;;;;36.47;17.67;;;;;;;-8.17;79.02;97966.59;5115299;28;20493;-36
2022/01/25 03:52:39;;;;;;;44.97;23.10;;;;;;;-8.14;78.30;97972.41;5115539;28;20507;-35
2022/01/25 03:55:07;;;;;;;45.53;22.97;;;;;;;-8.18;76.32;97970.94;5115547;28;20453;-35
2022/01/25 03:57:35;;;;;;;45.57;20.27;;;;;;;-8.23;76.80;97972.97;5115439;28;20442;-35
2022/01/25 04:00:02;;;;;;;90.00;39.40;;;;;;;-8.25;77.35;97965.31;5115482;28;20442;-35
2022/01/25 04:02:33;;;;;;;72.10;31.57;;;;;;;-8.20;77.52;97966.78;5115444;28;20438;-37
2022/01/25 04:05:01;;;;;;;52.30;27.33;;;;;;;-8.19;78.34;97965.84;5114365;28;20472;-36
2022/01/25 04:07:42;;;;;;;60.63;28.20;;;;;;;-8.15;78.41;97970.75;5115261;28;20453;-37
2022/01/25 04:10:10;;;;;;;76.10;30.30;;;;;;;-8.12;78.51;97969.75;5115252;28;20509;-35
2022/01/25 04:12:37;;;;;;;64.83;27.57;;;;;;;-8.10;78.58;97973.88;5115270;28;20442;-35
2022/01/25 04:15:05;;;;;;;43.63;20.73;;;;;;;-8.07;78.90;97975.44;5114873;28;20943;-35
2022/01/25 04:17:35;;;;;;;45.20;21.10;;;;;;;-8.05;78.40;97965.88;5114855;28;20943;-35
2022/01/25 04:20:14;;;;;;;30.63;15.70;;;;;;;-8.09;77.59;97969.56;5115029;28;20464;-38
2022/01/25 04:25:26;;;;;;;40.17;19.00;;;;;;;-8.17;76.83;97961.44;5114880;28;20398;-37
2022/01/25 04:27:54;;;;;;;36.30;18.87;;;;;;;-8.18;77.52;97964.94;5114592;28;20438;-37
2022/01/25 04:30:21;;;;;;;27.23;17.07;;;;;;;-8.18;78.10;97962.38;5114799;28;20490;-35
2022/01/25 04:32:56;;;;;;;50.50;20.40;;;;;;;-8.28;78.38;97942.31;5114639;28;20448;-37
2022/01/25 04:35:29;;;;;;;56.17;22.83;;;;;;;-8.13;79.08;97955.19;5114818;28;20507;-35
2022/01/25 04:49:07;;;;;;;37.60;20.90;;;;;;;-8.06;79.22;97961.66;5114332;28;20856;-35
2022/01/25 04:51:52;;;;;;;40.97;22.00;;;;;;;-8.08;79.41;97961.75;5114468;28;20430;-35
2022/01/25 04:54:30;;;;;;;44.83;20.73;;;;;;;-8.15;77.89;97959.59;5114325;28;20525;-35
2022/01/25 04:57:08;;;;;;;74.73;28.53;;;;;;;-8.20;77.56;97959.06;5114183;28;20462;-37
2022/01/25 04:59:40;;;;;;;75.60;34.30;;;;;;;-8.25;77.15;97951.59;5114085;28;20434;-36
2022/01/25 05:02:12;;;;;;;61.57;26.70;;;;;;;-8.27;76.88;97962.00;5114064;28;20430;-35
2022/01/25 05:04:45;;;;;;;67.37;32.10;;;;;;;-8.31;76.83;97970.00;5114083;28;20917;-36
2022/01/25 05:07:30;;;;;;;56.43;27.60;;;;;;;-8.35;76.71;97959.03;5114063;28;20916;-35
2022/01/25 05:09:59;;;;;;;71.80;29.10;;;;;;;-8.34;77.64;97959.88;5114529;28;20470;-37
2022/01/25 05:12:37;;;;;;;81.37;38.00;;;;;;;-8.35;77.88;97951.31;5114276;28;20465;-37
2022/01/25 05:15:20;;;;;;;77.13;36.17;;;;;;;-8.36;78.21;97949.66;5113856;28;20975;-35
2022/01/25 05:18:00;;;;;;;88.97;39.20;;;;;;;-8.36;77.76;97959.97;5113910;28;20422;-35
2022/01/25 05:23:14;;;;;;;74.23;34.50;;;;;;;-8.37;78.06;97944.59;5113862;28;20406;-36
2022/01/25 05:25:41;;;;;;;80.17;35.83;;;;;;;-8.37;78.50;97950.56;5114045;28;20445;-37
2022/01/25 05:28:09;;;;;;;83.30;34.60;;;;;;;-8.36;78.00;97952.22;5113596;28;20442;-38
2022/01/25 05:30:36;;;;;;;61.90;33.10;;;;;;;-8.36;77.50;97959.97;5113692;28;20490;-38
2022/01/25 05:33:03;;;;;;;60.57;32.67;;;;;;;-8.37;78.18;97947.97;5113620;28;20445;-38
2022/01/25 05:35:32;;;;;;;77.90;34.63;;;;;;;-8.33;78.35;97957.19;5113586;28;20453;-37
2022/01/25 05:38:00;;;;;;;68.73;30.07;;;;;;;-8.31;78.36;97939.91;5113940;28;20442;-37
2022/01/25 05:40:42;;;;;;;56.20;21.97;;;;;;;-8.29;78.54;97938.06;5113777;28;20537;-37
2022/01/25 05:46:10;;;;;;;39.80;19.00;;;;;;;-8.25;78.77;97938.72;5113866;28;20904;-38
2022/01/25 05:48:38;;;;;;;57.60;25.93;;;;;;;-8.18;79.64;97928.88;5114734;28;20505;-38
2022/01/25 05:51:07;;;;;;;57.70;20.00;;;;;;;-8.13;79.35;97932.84;5115057;28;20516;-36
2022/01/25 05:53:35;;;;;;;83.70;24.90;;;;;;;-8.10;78.98;97931.81;5113469;28;20921;-35
2022/01/25 05:56:02;;;;;;;75.73;25.57;;;;;;;-8.07;79.30;97924.72;5113478;28;20441;-35
2022/01/25 05:58:29;;;;;;;54.53;21.87;;;;;;;-8.04;79.15;97923.72;5113504;28;20925;-35
2022/01/25 06:00:57;;;;;;;45.87;20.37;;;;;;;-8.00;79.14;97920.03;5113601;28;20913;-35
2022/01/25 06:03:24;;;;;;;59.67;24.10;;;;;;;-7.98;78.10;97915.59;5113695;28;20512;-37
2022/01/25 06:05:51;;;;;;;71.70;30.37;;;;;;;-7.95;78.40;97912.84;5113331;28;20438;-37
2022/01/25 06:08:20;;;;;;;69.03;33.90;;;;;;;-7.94;77.70;97917.06;5113613;28;20449;-35
2022/01/25 06:10:47;;;;;;;76.93;32.33;;;;;;;-7.90;76.97;97923.69;5113258;28;20496;-37
2022/01/25 06:13:14;;;;;;;70.67;31.20;;;;;;;-7.63;76.13;97910.06;5113538;28;20448;-35
2022/01/25 06:15:42;;;;;;;74.00;32.47;;;;;;;-7.25;74.64;97914.53;5113254;28;20438;-36
2022/01/25 06:18:09;;;;;;;81.87;33.80;;;;;;;-6.86;73.38;97921.50;5113197;28;20445;-37
2022/01/25 06:20:36;;;;;;;153.17;64.07;;;;;;;-6.60;70.77;97906.84;5113218;28;20442;-35
2022/01/25 06:23:03;;;;;;;115.67;56.07;;;;;;;-6.22;70.95;97915.53;5113202;28;20442;-37
2022/01/25 06:25:34;;;;;;;117.43;53.07;;;;;;;-5.88;69.83;97908.88;5113133;28;20941;-35
2022/01/25 06:28:01;;;;;;;97.07;40.77;;;;;;;-5.56;69.19;97914.38;5114235;28;20820;-37
2022/01/25 06:30:29;;;;;;;76.47;39.83;;;;;;;-5.28;66.49;97914.22;5117051;28;20492;-36
2022/01/25 06:32:56;;;;;;;121.47;48.83;;;;;;;-5.04;65.25;97915.03;5116783;28;20438;-35
2022/01/25 06:35:23;;;;;;;114.20;51.43;;;;;;;-4.99;62.63;97902.56;5117263;28;20456;-37
2022/01/25 06:37:51;;;;;;;59.23;26.13;;;;;;;-5.01;62.00;97898.41;5117152;28;20438;-35
2022/01/25 06:40:18;;;;;;;32.90;16.67;;;;;;;-5.01;61.40;97909.63;5116900;28;20529;-36
2022/01/25 06:42:47;;;;;;;27.43;16.97;;;;;;;-4.96;61.78;97899.75;5116621;28;20441;-38
2022/01/25 06:45:17;;;;;;;31.43;17.60;;;;;;;-4.76;61.96;97895.69;5116561;28;20452;-36
2022/01/25 06:47:46;;;;;;;28.97;17.60;;;;;;;-4.69;61.45;97875.31;5116560;28;20442;-37
2022/01/25 06:50:15;;;;;;;46.37;23.00;;;;;;;-4.42;59.76;97894.97;5116205;28;20489;-38
2022/01/25 06:52:42;;;;;;;44.57;26.43;;;;;;;-4.47;59.07;97902.25;5116797;28;20447;-37
2022/01/25 06:55:11;;;;;;;49.87;20.77;;;;;;;-4.35;59.85;97901.31;5116397;28;20445;-38
2022/01/25 06:57:39;;;;;;;51.43;24.60;;;;;;;-4.28;59.38;97894.75;5116691;28;20446;-38
2022/01/25 07:00:12;;;;;;;58.93;28.90;;;;;;;-4.33;58.28;97891.66;5116592;28;20509;-38
2022/01/25 07:02:39;;;;;;;35.77;15.20;;;;;;;-4.36;57.99;97902.28;5116268;28;20435;-38
2022/01/25 07:05:07;;;;;;;28.00;14.43;;;;;;;-4.61;58.13;97875.59;5116523;28;20434;-37
2022/01/25 07:07:35;;;;;;;26.00;13.73;;;;;;;-4.65;57.78;97905.25;5116518;28;20443;-37
2022/01/25 07:10:04;;;;;;;28.50;14.57;;;;;;;-4.41;57.93;97894.00;5108537;28;20479;-39
2022/01/25 07:12:31;;;;;;;24.90;12.60;;;;;;;-4.24;58.33;97898.75;5095587;28;20531;-38
2022/01/25 07:14:58;;;;;;;26.23;12.63;;;;;;;-3.97;59.22;97889.81;5114992;28;20450;-38
2022/01/25 07:17:27;;;;;;;28.27;15.10;;;;;;;-3.65;60.81;97894.28;5115974;28;20529;-38
2022/01/25 07:19:54;;;;;;;28.30;15.00;;;;;;;-3.45;58.32;97896.13;5116290;28;20511;-38
2022/01/25 07:22:21;;;;;;;30.17;16.00;;;;;;;-3.44;57.26;97897.78;5117102;28;20449;-38
2022/01/25 07:24:48;;;;;;;30.50;15.67;;;;;;;-3.40;56.34;97891.41;5116166;28;20446;-38
2022/01/25 07:27:16;;;;;;;35.30;16.30;;;;;;;-3.34;57.29;97903.06;5115841;28;20446;-38
2022/01/25 07:29:43;;;;;;;34.00;13.33;;;;;;;-3.17;56.68;97888.72;5115771;28;20968;-38
2022/01/25 07:32:10;;;;;;;23.43;11.50;;;;;;;-3.09;56.73;97896.75;5115946;28;20489;-38
2022/01/25 07:34:39;;;;;;;21.33;13.63;;;;;;;-3.20;55.80;97900.19;5116022;28;20471;-38
2022/01/25 07:37:06;;;;;;;30.03;18.33;;;;;;;-3.04;56.45;97904.97;5115646;28;20442;-38
2022/01/25 07:39:33;;;;;;;45.60;21.90;;;;;;;-2.86;56.82;97891.44;5115627;28;20441;-37
2022/01/25 07:42:01;;;;;;;26.40;14.20;;;;;;;-2.90;55.69;97883.91;5115521;28;20451;-38
2022/01/25 07:44:31;;;;;;;25.93;12.77;;;;;;;-2.89;56.20;97877.75;5115812;28;20446;-37
2022/01/25 07:47:00;;;;;;;25.57;10.40;;;;;;;-2.83;56.64;97860.03;5115521;28;20427;-37
2022/01/25 07:49:28;;;;;;;20.30;13.50;;;;;;;-2.50;57.06;97872.81;5115277;28;20481;-38
2022/01/25 07:51:57;;;;;;;23.40;12.47;;;;;;;-2.34;56.65;97842.94;5115598;28;20485;-38
2022/01/25 07:54:26;;;;;;;36.17;16.80;;;;;;;-1.97;56.01;97864.06;5115681;28;20453;-38
2022/01/25 07:56:53;;;;;;;45.53;19.27;;;;;;;-1.84;56.28;97863.00;5115553;28;20462;-38
2022/01/25 07:59:21;;;;;;;50.03;22.70;;;;;;;-1.74;55.69;97864.69;5115220;28;20933;-38
2022/01/25 08:01:49;;;;;;;20.70;10.73;;;;;;;-1.40;54.40;97866.94;5115464;28;20940;-37
2022/01/25 08:04:17;;;;;;;34.23;12.40;;;;;;;-1.11;54.14;97874.00;5115387;28;20438;-35
2022/01/25 08:06:44;;;;;;;22.40;12.23;;;;;;;-0.94;52.37;97857.66;5115062;28;20434;-36
2022/01/25 08:09:13;;;;;;;28.67;12.20;;;;;;;-0.84;52.49;97861.09;5114989;28;20529;-34
2022/01/25 08:11:40;;;;;;;41.80;15.97;;;;;;;-0.68;51.53;97857.09;5114856;28;20988;-37
2022/01/25 08:14:16;;;;;;;33.03;11.40;;;;;;;-0.64;51.34;97840.22;5114899;28;20948;-35
2022/01/25 08:16:46;;;;;;;30.33;13.83;;;;;;;-0.48;49.66;97853.47;5115169;28;20433;-36
2022/01/25 08:19:14;;;;;;;69.27;24.33;;;;;;;-0.52;50.19;97839.06;5114793;28;20426;-35
2022/01/25 08:21:42;;;;;;;28.00;12.93;;;;;;;-0.32;50.42;97857.28;5114756;28;20446;-35
2022/01/25 08:24:14;;;;;;;18.20;9.83;;;;;;;-0.26;49.65;97856.72;5114521;28;20442;-36
2022/01/25 08:26:43;;;;;;;19.37;7.57;;;;;;;-0.24;48.80;97845.19;5114639;28;20445;-35
2022/01/25 08:29:10;;;;;;;17.43;9.10;;;;;;;-0.36;48.47;97828.06;5114735;28;20453;-36
2022/01/25 08:31:39;;;;;;;18.60;8.60;;;;;;;-0.37;48.97;97828.19;5114425;28;20535;-36
2022/01/25 08:34:06;;;;;;;24.33;13.23;;;;;;;-0.39;48.42;97836.16;5114409;28;20442;-39
2022/01/25 08:36:33;;;;;;;28.93;12.03;;;;;;;-0.37;49.11;97834.22;5114743;28;20513;-36
2022/01/25 08:39:01;;;;;;;29.37;12.40;;;;;;;-0.46;48.82;97832.47;5114616;28;20434;-36
2022/01/25 08:41:29;;;;;;;38.03;12.90;;;;;;;-0.59;48.38;97819.72;5114257;28;20453;-36
2022/01/25 08:43:56;;;;;;;11.60;6.80;;;;;;;-0.65;48.73;97820.28;5114272;28;20445;-38
2022/01/25 08:46:24;;;;;;;12.23;7.93;;;;;;;-0.71;49.19;97821.69;5114204;28;20442;-36
2022/01/25 08:48:52;;;;;;;23.27;9.30;;;;;;;-0.69;49.01;97821.53;5114075;28;20561;-34
2022/01/25 08:51:19;;;;;;;19.33;8.50;;;;;;;-0.70;48.88;97822.50;5113511;28;20490;-34
2022/01/25 08:53:48;;;;;;;10.63;6.83;;;;;;;-0.71;49.15;97794.75;5114155;28;20438;-35
2022/01/25 08:56:15;;;;;;;12.13;6.90;;;;;;;-0.68;47.69;97815.38;5114134;28;20453;-34
2022/01/25 08:58:44;;;;;;;16.33;7.03;;;;;;;-0.66;48.33;97826.47;5114003;28;20440;-37
2022/01/25 09:01:11;;;;;;;10.00;6.00;;;;;;;-0.61;48.51;97824.28;5114253;28;20790;-36
2022/01/25 09:03:39;;;;;;;14.17;8.20;;;;;;;-0.49;48.45;97817.13;5113895;28;20442;-37
2022/01/25 09:06:06;;;;;;;25.83;8.00;;;;;;;-0.53;47.75;97824.41;5113911;28;20438;-36
2022/01/25 09:08:33;;;;;;;19.87;7.47;;;;;;;-0.66;47.37;97814.25;5114253;28;20926;-37
2022/01/25 09:11:03;;;;;;;28.87;10.93;;;;;;;-1.00;47.38;97805.25;5114000;28;20485;-36
2022/01/25 09:13:32;;;;;;;26.63;9.13;;;;;;;-0.89;48.52;97812.91;5110231;28;20438;-38
2022/01/25 09:16:01;;;;;;;8.73;5.03;;;;;;;-0.70;47.26;97812.06;5093427;28;20952;-37
2022/01/25 09:18:28;;;;;;;22.20;6.80;;;;;;;-0.64;48.07;97817.56;5093432;28;20442;-38
2022/01/25 09:20:56;;;;;;;24.97;12.07;;;;;;;-0.58;48.75;97810.97;5093313;28;20945;-38
2022/01/25 09:23:24;;;;;;;10.60;5.83;;;;;;;-1.05;48.03;97808.28;5075858;28;20443;-38
2022/01/25 09:25:52;;;;;;;19.53;8.83;;;;;;;-0.90;47.75;97817.31;5093298;28;20812;-38
2022/01/25 09:28:19;;;;;;;21.87;8.80;;;;;;;-0.77;48.38;97816.22;5093599;28;20804;-37
2022/01/25 09:30:47;;;;;;;28.77;11.10;;;;;;;-0.62;47.82;97801.78;5093497;28;20871;-38
2022/01/25 09:33:16;;;;;;;17.97;8.63;;;;;;;-0.57;46.75;97796.94;5093486;28;20439;-38
2022/01/25 09:35:44;;;;;;;14.87;10.80;;;;;;;-0.56;47.90;97797.75;5093594;28;20461;-38
2022/01/25 09:38:11;;;;;;;16.07;7.77;;;;;;;-0.63;47.32;97792.28;5093151;28;20953;-38
2022/01/25 09:40:38;;;;;;;25.87;11.47;;;;;;;-0.48;48.10;97792.66;5093385;28;20439;-38
2022/01/25 09:43:07;;;;;;;25.83;9.80;;;;;;;-0.59;48.01;97783.22;5093090;28;20445;-37
2022/01/25 09:45:35;;;;;;;19.70;6.87;;;;;;;-0.45;47.73;97790.59;5093125;28;20439;-38
2022/01/25 09:48:03;;;;;;;11.37;7.43;;;;;;;-0.45;46.14;97785.38;5093780;28;20449;-40
2022/01/25 09:50:32;;;;;;;39.73;12.57;;;;;;;-0.44;47.10;97766.13;5092638;28;20430;-38
2022/01/25 09:53:00;;;;;;;12.60;6.40;;;;;;;-0.40;47.50;97784.13;5093455;28;20490;-38
2022/01/25 09:55:31;;;;;;;15.90;9.00;;;;;;;-0.23;47.77;97775.53;5093050;28;20962;-39
2022/01/25 09:57:58;;;;;;;12.13;8.23;;;;;;;-0.26;47.78;97749.72;5093441;28;20423;-38
2022/01/25 10:00:29;;;;;;;15.57;8.60;;;;;;;-0.15;47.18;97769.59;5092979;28;20946;-38
2022/01/25 10:03:05;;;;;;;19.97;10.80;;;;;;;0.21;47.23;97765.25;5094431;28;20435;-37
2022/01/25 10:05:36;;;;;;;16.63;10.10;;;;;;;0.32;46.69;97759.84;5097322;28;20435;-38
2022/01/25 10:08:05;;;;;;;19.93;8.43;;;;;;;0.43;45.62;97757.97;5096885;28;20838;-39
2022/01/25 10:10:35;;;;;;;19.43;11.53;;;;;;;0.39;46.27;97773.97;5097183;28;20439;-38
2022/01/25 10:13:16;;;;;;;19.97;10.77;;;;;;;0.29;46.61;97773.19;5096670;28;20487;-38
2022/01/25 10:15:44;;;;;;;14.43;8.33;;;;;;;0.34;46.00;97751.84;5096950;28;20926;-38
2022/01/25 10:18:11;;;;;;;23.27;10.27;;;;;;;0.20;45.66;97750.56;5097024;28;20447;-35
2022/01/25 10:20:42;;;;;;;15.10;8.20;;;;;;;0.33;47.16;97752.84;5096633;28;20451;-35
2022/01/25 10:23:15;;;;;;;13.73;7.03;;;;;;;0.19;46.08;97762.81;5096651;28;20445;-35
2022/01/25 10:25:47;;;;;;;14.63;8.03;;;;;;;0.34;46.51;97752.66;5096655;28;20427;-35
2022/01/25 10:28:23;;;;;;;14.23;7.60;;;;;;;0.44;45.15;97749.19;5096209;28;20435;-34
2022/01/25 10:30:53;;;;;;;17.03;6.50;;;;;;;0.55;45.71;97748.94;5096594;28;21007;-35
2022/01/25 10:33:28;;;;;;;20.77;10.90;;;;;;;0.69;46.43;97753.66;5096597;28;20442;-35
2022/01/25 10:35:59;;;;;;;14.27;7.50;;;;;;;0.93;45.66;97749.59;5096395;28;20430;-34
2022/01/25 10:38:29;;;;;;;5.50;4.47;;;;;;;0.78;44.04;97755.38;5096385;28;20552;-35
2022/01/25 10:41:02;;;;;;;17.03;9.67;;;;;;;0.59;43.86;97747.69;5096329;28;20439;-37
2022/01/25 10:43:31;;;;;;;8.13;5.17;;;;;;;0.75;44.35;97742.63;5096344;28;20434;-35
2022/01/25 10:46:06;;;;;;;19.33;10.50;;;;;;;0.92;44.13;97748.75;5096698;28;20461;-35
2022/01/25 10:48:33;;;;;;;18.93;8.83;;;;;;;1.14;44.37;97749.25;5095896;28;20478;-34
2022/01/25 10:51:07;;;;;;;8.47;5.60;;;;;;;1.20;42.78;97731.13;5096168;28;20948;-34
2022/01/25 10:53:35;;;;;;;14.10;7.17;;;;;;;1.14;43.38;97733.56;5096132;28;20427;-35
2022/01/25 10:56:02;;;;;;;7.00;5.00;;;;;;;1.20;43.45;97731.13;5095989;28;20451;-36
2022/01/25 10:58:30;;;;;;;14.03;6.60;;;;;;;1.21;43.84;97739.84;5096160;28;20530;-39
2022/01/25 11:00:59;;;;;;;16.53;5.70;;;;;;;1.31;42.86;97732.72;5095923;28;20434;-39
2022/01/25 11:03:29;;;;;;;12.43;5.43;;;;;;;1.26;41.00;97714.00;5096195;28;20450;-35
2022/01/25 11:05:57;;;;;;;11.87;5.10;;;;;;;1.20;42.40;97702.34;5096117;28;20435;-34
2022/01/25 11:08:28;;;;;;;22.87;10.70;;;;;;;1.40;42.80;97710.03;5095697;28;20446;-34
2022/01/25 11:10:59;;;;;;;14.20;6.40;;;;;;;1.45;42.32;97704.31;5096071;28;20450;-37
2022/01/25 11:16:12;;;;;;;18.37;8.37;;;;;;;1.10;42.78;97688.59;5095509;28;20427;-34
2022/01/25 11:18:40;;;;;;;20.90;9.77;;;;;;;1.15;44.43;97686.31;5095589;28;20439;-34
2022/01/25 11:21:09;;;;;;;28.33;15.30;;;;;;;1.23;42.96;97688.16;5095760;28;20810;-36
2022/01/25 11:23:41;;;;;;;17.10;9.80;;;;;;;1.20;43.46;97691.91;5095466;28;20443;-35
2022/01/25 11:26:10;;;;;;;9.93;5.87;;;;;;;1.15;42.25;97681.09;5095521;28;20799;-34
2022/01/25 11:28:39;;;;;;;19.47;7.80;;;;;;;1.04;41.70;97668.28;5095450;28;20480;-39
2022/01/25 11:31:09;;;;;;;15.97;7.63;;;;;;;1.01;42.30;97663.34;5095207;28;20445;-34
2022/01/25 11:33:42;;;;;;;18.40;10.43;;;;;;;1.04;44.15;97673.50;5095588;28;20443;-34
2022/01/25 11:36:10;;;;;;;12.53;7.00;;;;;;;1.02;42.76;97667.63;5095548;28;20434;-37
2022/01/25 11:38:43;;;;;;;28.83;9.93;;;;;;;0.90;42.17;97666.22;5098327;28;20453;-35
2022/01/25 11:41:13;;;;;;;28.30;11.37;;;;;;;1.00;43.39;97674.78;5115931;28;20792;-34
2022/01/25 11:43:42;;;;;;;15.73;6.97;;;;;;;0.88;42.91;97668.16;5115813;28;20438;-39
2022/01/25 11:46:10;;;;;;;20.80;9.33;;;;;;;0.84;42.37;97659.84;5115479;28;20922;-38
2022/01/25 11:48:43;;;;;;;13.07;6.53;;;;;;;0.58;43.16;97658.00;5115285;28;20476;-34
2022/01/25 11:51:17;;;;;;;23.97;8.00;;;;;;;0.62;44.37;97655.91;5115394;28;20478;-34
2022/01/25 11:53:48;;;;;;;14.73;6.03;;;;;;;0.65;44.35;97653.00;5115571;28;20431;-37
2022/01/25 11:56:17;;;;;;;10.03;6.70;;;;;;;0.70;44.79;97649.91;5115286;28;20427;-36
2022/01/25 11:58:55;;;;;;;28.23;10.50;;;;;;;0.77;44.16;97650.94;5115281;28;20438;-34
2022/01/25 12:01:25;;;;;;;15.87;6.80;;;;;;;0.78;43.92;97653.41;5115269;28;20499;-35
2022/01/25 12:03:53;;;;;;;9.77;5.63;;;;;;;0.78;43.13;97650.78;5115127;28;20438;-37
2022/01/25 12:06:26;;;;;;;29.57;13.23;;;;;;;0.77;43.34;97643.91;5115164;28;20468;-39
2022/01/25 12:09:16;;;;;;;9.03;6.17;;;;;;;0.61;43.85;97646.44;5115147;28;20898;-38
2022/01/25 12:11:48;;;;;;;15.57;7.37;;;;;;;0.49;45.52;97638.00;5114891;28;20482;-38
2022/01/25 12:14:18;;;;;;;13.37;7.53;;;;;;;0.45;44.75;97646.28;5114931;28;20487;-36
2022/01/25 12:16:47;;;;;;;10.43;7.33;;;;;;;0.32;44.37;97639.69;5115385;28;20430;-38
2022/01/25 12:19:16;;;;;;;9.47;5.27;;;;;;;0.30;44.10;97644.25;5114761;28;20798;-38
2022/01/25 12:22:02;;;;;;;15.10;8.17;;;;;;;0.29;44.20;97632.13;5114781;28;20449;-38
2022/01/25 12:24:35;;;;;;;7.47;4.17;;;;;;;0.35;43.84;97635.94;5115160;28;20446;-36
2022/01/25 12:27:10;;;;;;;19.77;7.67;;;;;;;0.12;44.11;97635.56;5113954;28;20471;-38
2022/01/25 12:29:41;;;;;;;23.83;10.27;;;;;;;0.26;45.20;97632.44;5115053;28;20429;-37
2022/01/25 12:32:26;;;;;;;15.40;6.83;;;;;;;0.14;44.40;97633.63;5114586;28;20481;-37
2022/01/25 12:35:07;;;;;;;11.87;6.57;;;;;;;0.09;44.01;97628.88;5114616;28;20867;-36
2022/01/25 12:38:08;;;;;;;14.13;6.07;;;;;;;0.11;44.78;97628.72;5114484;28;20426;-36
2022/01/25 12:40:43;;;;;;;10.43;5.33;;;;;;;0.07;44.43;97622.16;5100182;28;20453;-35
2022/01/25 12:43:16;;;;;;;13.90;7.50;;;;;;;0.05;44.37;97630.13;5114407;28;20898;-37